Time;durP1;ratioP1;P1;durP2;ratioP2;P2;SDS_P1;SDS_P2;PMS_P1;PMS_P2;Temp;Humidity;BMP_temperature;BMP_pressure;BME280_temperature;BME280_humidity;BME280_pressure;Samples;Min_cycle;Max_cycle;Signal;HPM_P1;HPM_P2
2024/03/03 00:00:24;;;;;;;31.77;15.15;;;;;;;;;;5078535;28;20057;-65
2024/03/03 00:02:52;;;;;;;33.67;16.20;;;;;;;;;;5083179;28;20028;-67
2024/03/03 00:05:18;;;;;;;33.25;16.90;;;;;;;;;;5081942;28;20036;-65
2024/03/03 00:07:44;;;;;;;35.47;15.20;;;;;;;;;;5080966;28;20025;-64
2024/03/03 00:10:11;;;;;;;35.28;15.85;;;;;;;;;;5080775;28;20044;-63
2024/03/03 00:12:38;;;;;;;31.05;14.85;;;;;;;;;;5085182;28;20048;-64
2024/03/03 00:15:04;;;;;;;33.60;15.63;;;;;;;;;;5083295;28;20043;-63
2024/03/03 00:17:30;;;;;;;32.42;15.50;;;;;;;;;;5083527;28;20044;-64
2024/03/03 00:19:57;;;;;;;31.08;15.85;;;;;;;;;;5082098;28;20044;-64
2024/03/03 00:22:25;;;;;;;30.83;13.73;;;;;;;;;;5080751;28;20511;-64
2024/03/03 00:24:51;;;;;;;31.73;15.15;;;;;;;;;;5077688;28;20058;-64
2024/03/03 00:27:17;;;;;;;33.78;15.68;;;;;;;;;;5071804;28;20051;-64
2024/03/03 00:29:43;;;;;;;33.30;15.27;;;;;;;;;;5076715;28;20028;-63
2024/03/03 00:32:10;;;;;;;31.95;15.70;;;;;;;;;;5083558;28;20040;-62
2024/03/03 00:34:36;;;;;;;33.08;15.05;;;;;;;;;;5069111;28;20421;-64
2024/03/03 00:37:03;;;;;;;39.33;16.63;;;;;;;;;;5079585;28;20035;-63
2024/03/03 00:39:29;;;;;;;35.13;17.17;;;;;;;;;;5082541;28;20075;-64
2024/03/03 00:41:55;;;;;;;36.25;17.55;;;;;;;;;;5079130;28;20048;-64
2024/03/03 00:44:23;;;;;;;35.17;17.70;;;;;;;;;;5088079;28;20040;-64
2024/03/03 00:46:49;;;;;;;42.67;18.02;;;;;;;;;;5082365;28;20047;-64
2024/03/03 00:49:15;;;;;;;37.13;17.05;;;;;;;;;;5080275;28;20048;-64
2024/03/03 00:51:41;;;;;;;34.47;16.58;;;;;;;;;;5085806;28;20074;-63
2024/03/03 00:54:09;;;;;;;36.92;16.40;;;;;;;;;;5082854;28;20032;-64
2024/03/03 00:56:35;;;;;;;37.97;16.95;;;;;;;;;;5080970;28;20052;-64
2024/03/03 00:59:06;;;;;;;34.78;16.60;;;;;;;;;;5078315;28;20048;-64
2024/03/03 01:01:32;;;;;;;32.22;16.10;;;;;;;;;;5078833;28;20056;-64
2024/03/03 01:03:58;;;;;;;34.95;16.70;;;;;;;;;;5079341;28;20043;-64
2024/03/03 01:06:24;;;;;;;35.03;16.80;;;;;;;;;;5090193;28;20044;-64
2024/03/03 01:08:50;;;;;;;31.80;15.77;;;;;;;;;;5055547;28;20032;-64
2024/03/03 01:11:16;;;;;;;29.40;14.85;;;;;;;;;;5080443;28;20044;-63
2024/03/03 01:13:43;;;;;;;32.17;15.30;;;;;;;;;;5080849;28;20039;-63
2024/03/03 01:16:09;;;;;;;27.23;14.15;;;;;;;;;;5079332;28;20020;-64
2024/03/03 01:18:35;;;;;;;35.05;16.00;;;;;;;;;;5082562;28;20390;-63
2024/03/03 01:21:01;;;;;;;32.65;15.85;;;;;;;;;;5083221;28;20043;-63
2024/03/03 01:23:28;;;;;;;28.40;14.02;;;;;;;;;;5073921;28;20401;-63
2024/03/03 01:25:54;;;;;;;30.65;14.15;;;;;;;;;;5076183;28;20036;-64
2024/03/03 01:28:20;;;;;;;26.63;12.00;;;;;;;;;;5079919;28;20028;-64
2024/03/03 01:30:46;;;;;;;28.58;12.82;;;;;;;;;;5079780;28;20048;-63
2024/03/03 01:33:12;;;;;;;28.60;12.85;;;;;;;;;;5082097;28;20033;-64
2024/03/03 01:35:38;;;;;;;28.08;12.77;;;;;;;;;;5080541;28;20660;-64
2024/03/03 01:38:05;;;;;;;22.95;11.98;;;;;;;;;;5072221;28;20039;-64
2024/03/03 01:40:31;;;;;;;24.73;11.48;;;;;;;;;;5082815;28;20037;-63
2024/03/03 01:42:58;;;;;;;25.15;12.55;;;;;;;;;;5080412;28;20052;-63
2024/03/03 01:45:24;;;;;;;24.85;11.02;;;;;;;;;;5088616;28;20044;-64
2024/03/03 01:47:52;;;;;;;26.50;11.80;;;;;;;;;;5088554;28;20028;-64
2024/03/03 01:50:20;;;;;;;24.55;11.55;;;;;;;;;;5087922;28;20040;-64
2024/03/03 01:52:47;;;;;;;23.58;10.70;;;;;;;;;;5077880;28;20040;-63
2024/03/03 01:55:17;;;;;;;23.05;10.60;;;;;;;;;;5092329;28;20059;-63
2024/03/03 01:57:44;;;;;;;20.95;11.18;;;;;;;;;;5085238;28;20047;-63
2024/03/03 02:00:11;;;;;;;20.77;10.70;;;;;;;;;;5075659;28;20492;-63
2024/03/03 02:02:42;;;;;;;22.67;10.43;;;;;;;;;;5089753;28;20416;-63
2024/03/03 02:05:11;;;;;;;23.70;10.80;;;;;;;;;;5084228;28;20040;-63
2024/03/03 02:07:38;;;;;;;21.90;10.77;;;;;;;;;;5082918;28;20060;-63
2024/03/03 02:10:07;;;;;;;21.30;10.05;;;;;;;;;;5083613;28;20397;-64
2024/03/03 02:12:33;;;;;;;22.75;11.10;;;;;;;;;;5082775;28;20059;-63
2024/03/03 02:15:00;;;;;;;25.65;10.65;;;;;;;;;;5067735;28;20039;-63
2024/03/03 02:17:26;;;;;;;22.85;10.68;;;;;;;;;;5086247;28;20059;-63
2024/03/03 02:19:52;;;;;;;20.85;9.23;;;;;;;;;;5080063;28;20098;-63
2024/03/03 02:22:18;;;;;;;19.67;9.20;;;;;;;;;;5081048;28;20414;-63
2024/03/03 02:24:44;;;;;;;20.52;9.15;;;;;;;;;;5078540;28;20048;-63
2024/03/03 02:27:10;;;;;;;19.10;9.57;;;;;;;;;;5086279;28;20064;-64
2024/03/03 02:29:36;;;;;;;19.83;9.60;;;;;;;;;;5082091;28;20390;-64
2024/03/03 02:32:03;;;;;;;18.13;8.90;;;;;;;;;;5085283;28;20484;-66
2024/03/03 02:34:29;;;;;;;20.20;9.18;;;;;;;;;;5076612;28;20043;-63
2024/03/03 02:36:55;;;;;;;18.48;9.10;;;;;;;;;;5090803;28;20056;-64
2024/03/03 02:39:21;;;;;;;21.05;9.18;;;;;;;;;;5084665;28;20394;-63
2024/03/03 02:41:47;;;;;;;16.10;8.10;;;;;;;;;;5081189;28;20040;-63
2024/03/03 02:44:13;;;;;;;17.70;8.52;;;;;;;;;;5076164;28;20051;-64
2024/03/03 02:46:40;;;;;;;18.67;8.98;;;;;;;;;;5092018;28;20032;-63
2024/03/03 02:49:06;;;;;;;16.80;7.78;;;;;;;;;;5083809;28;20530;-63
2024/03/03 02:51:32;;;;;;;16.33;8.60;;;;;;;;;;5083884;28;20040;-63
2024/03/03 02:53:58;;;;;;;17.65;7.82;;;;;;;;;;5085902;28;20039;-63
2024/03/03 02:56:24;;;;;;;18.88;8.98;;;;;;;;;;5079382;28;20122;-63
2024/03/03 02:58:50;;;;;;;18.15;7.97;;;;;;;;;;5085670;28;20060;-63
2024/03/03 03:01:16;;;;;;;16.58;7.80;;;;;;;;;;5083926;28;20480;-63
2024/03/03 03:03:42;;;;;;;14.35;7.50;;;;;;;;;;5079102;28;20047;-63
2024/03/03 03:06:08;;;;;;;15.52;7.38;;;;;;;;;;5089369;28;20401;-63
2024/03/03 03:08:34;;;;;;;17.15;7.75;;;;;;;;;;5083604;28;20032;-63
2024/03/03 03:11:02;;;;;;;13.00;7.18;;;;;;;;;;5081119;28;20032;-63
2024/03/03 03:13:28;;;;;;;16.60;7.65;;;;;;;;;;5078469;28;20055;-62
2024/03/03 03:15:54;;;;;;;19.20;8.45;;;;;;;;;;5077682;28;20063;-63
2024/03/03 03:18:20;;;;;;;21.63;9.77;;;;;;;;;;5086457;28;20075;-63
2024/03/03 03:20:46;;;;;;;21.00;9.05;;;;;;;;;;5097860;28;20135;-62
2024/03/03 03:23:12;;;;;;;16.42;7.95;;;;;;;;;;5080547;28;20508;-63
2024/03/03 03:25:39;;;;;;;14.95;7.50;;;;;;;;;;5079016;28;20466;-63
2024/03/03 03:28:05;;;;;;;15.57;7.03;;;;;;;;;;5076095;28;20036;-63
2024/03/03 03:30:31;;;;;;;14.60;7.22;;;;;;;;;;5081551;28;20039;-62
2024/03/03 03:32:57;;;;;;;13.93;6.88;;;;;;;;;;5080382;28;20396;-63
2024/03/03 03:35:24;;;;;;;16.80;7.63;;;;;;;;;;5080176;28;20040;-62
2024/03/03 03:37:50;;;;;;;16.23;7.57;;;;;;;;;;5077153;28;20165;-62
2024/03/03 03:40:17;;;;;;;18.55;7.43;;;;;;;;;;5081866;28;20162;-63
2024/03/03 03:42:43;;;;;;;16.52;8.27;;;;;;;;;;5077824;28;20048;-62
2024/03/03 03:45:09;;;;;;;10.95;6.57;;;;;;;;;;5081225;28;20027;-63
2024/03/03 03:47:35;;;;;;;14.20;7.55;;;;;;;;;;5088437;28;20036;-63
2024/03/03 03:50:01;;;;;;;17.17;7.00;;;;;;;;;;5075479;28;20036;-63
2024/03/03 03:52:28;;;;;;;13.18;6.68;;;;;;;;;;5079665;28;20522;-63
2024/03/03 03:54:54;;;;;;;16.33;7.07;;;;;;;;;;5081925;28;20044;-62
2024/03/03 03:57:20;;;;;;;16.58;7.35;;;;;;;;;;5084763;28;20040;-63
2024/03/03 03:59:46;;;;;;;17.88;6.78;;;;;;;;;;5079345;28;20028;-63
2024/03/03 04:02:12;;;;;;;14.73;7.53;;;;;;;;;;5076610;28;20052;-62
2024/03/03 04:04:38;;;;;;;13.68;6.90;;;;;;;;;;5080310;28;20131;-63
2024/03/03 04:07:04;;;;;;;10.95;6.05;;;;;;;;;;5087401;28;20056;-63
2024/03/03 04:09:31;;;;;;;15.18;7.07;;;;;;;;;;5069763;28;20437;-63
2024/03/03 04:11:58;;;;;;;14.32;6.80;;;;;;;;;;5077790;28;20052;-63
2024/03/03 04:14:25;;;;;;;13.02;7.45;;;;;;;;;;5080290;28;20063;-63
2024/03/03 04:16:51;;;;;;;12.65;6.70;;;;;;;;;;5074911;28;20064;-62
2024/03/03 04:19:17;;;;;;;13.40;7.07;;;;;;;;;;5082786;28;20052;-62
2024/03/03 04:21:44;;;;;;;16.02;7.30;;;;;;;;;;5071389;28;20057;-62
2024/03/03 04:24:13;;;;;;;15.82;7.93;;;;;;;;;;5078652;28;20381;-62
2024/03/03 04:26:40;;;;;;;16.90;7.80;;;;;;;;;;5076555;28;20036;-62
2024/03/03 04:29:06;;;;;;;13.32;6.75;;;;;;;;;;5084481;28;20036;-62
2024/03/03 04:31:33;;;;;;;15.32;7.85;;;;;;;;;;5087703;28;20044;-64
2024/03/03 04:33:59;;;;;;;16.23;7.65;;;;;;;;;;5077111;28;20040;-65
2024/03/03 04:36:25;;;;;;;21.00;8.13;;;;;;;;;;5081775;28;20045;-65
2024/03/03 04:38:51;;;;;;;19.17;8.48;;;;;;;;;;5082309;28;20112;-65
2024/03/03 04:41:19;;;;;;;16.52;7.95;;;;;;;;;;5081293;28;20052;-63
2024/03/03 04:43:46;;;;;;;21.85;8.80;;;;;;;;;;5076421;28;20035;-65
2024/03/03 04:46:12;;;;;;;17.75;8.35;;;;;;;;;;5086140;28;20493;-62
2024/03/03 04:48:39;;;;;;;15.32;7.60;;;;;;;;;;5075217;28;20047;-63
2024/03/03 04:51:06;;;;;;;18.95;8.73;;;;;;;;;;5071118;28;20037;-63
2024/03/03 04:53:35;;;;;;;18.55;7.43;;;;;;;;;;5078538;28;20054;-63
2024/03/03 04:56:02;;;;;;;17.15;8.27;;;;;;;;;;5076743;28;20036;-63
2024/03/03 04:58:28;;;;;;;18.90;9.23;;;;;;;;;;5085881;28;20513;-63
2024/03/03 05:00:54;;;;;;;18.23;8.38;;;;;;;;;;5087168;28;20500;-63
2024/03/03 05:03:22;;;;;;;18.20;8.93;;;;;;;;;;5081943;28;20045;-62
2024/03/03 05:05:48;;;;;;;16.55;8.05;;;;;;;;;;5078746;28;20040;-63
2024/03/03 05:08:14;;;;;;;18.50;8.65;;;;;;;;;;5080114;28;20539;-63
2024/03/03 05:10:40;;;;;;;16.83;7.40;;;;;;;;;;5080437;28;20052;-64
2024/03/03 05:13:06;;;;;;;18.83;9.02;;;;;;;;;;5077816;28;20040;-63
2024/03/03 05:15:32;;;;;;;21.88;8.65;;;;;;;;;;5075831;28;20040;-63
2024/03/03 05:17:59;;;;;;;22.35;9.02;;;;;;;;;;5082322;28;20043;-63
2024/03/03 05:20:25;;;;;;;17.88;8.45;;;;;;;;;;5080602;28;20559;-63
2024/03/03 05:22:52;;;;;;;19.65;8.20;;;;;;;;;;5077693;28;20054;-63
2024/03/03 05:25:19;;;;;;;15.43;6.95;;;;;;;;;;5078916;28;20425;-63
2024/03/03 05:27:45;;;;;;;14.75;7.30;;;;;;;;;;5079133;28;20052;-64
2024/03/03 05:30:11;;;;;;;17.13;6.88;;;;;;;;;;5071539;28;20589;-63
2024/03/03 05:32:37;;;;;;;17.42;7.70;;;;;;;;;;5081037;28;20050;-63
2024/03/03 05:35:03;;;;;;;16.73;7.25;;;;;;;;;;5080284;28;20049;-63
2024/03/03 05:37:29;;;;;;;13.73;6.80;;;;;;;;;;5074698;28;20047;-63
2024/03/03 05:39:55;;;;;;;14.60;6.63;;;;;;;;;;5097724;28;20421;-63
2024/03/03 05:42:21;;;;;;;15.77;7.18;;;;;;;;;;5072564;28;20048;-63
2024/03/03 05:44:47;;;;;;;16.15;7.30;;;;;;;;;;5072935;28;20037;-63
2024/03/03 05:47:14;;;;;;;13.00;7.10;;;;;;;;;;5076677;28;20043;-63
2024/03/03 05:49:40;;;;;;;13.63;6.80;;;;;;;;;;5080225;28;20032;-63
2024/03/03 05:52:07;;;;;;;12.38;6.57;;;;;;;;;;5079120;28;20036;-63
2024/03/03 05:54:36;;;;;;;13.55;6.15;;;;;;;;;;5078440;28;20520;-64
2024/03/03 05:57:02;;;;;;;17.98;6.72;;;;;;;;;;5071259;28;20043;-64
2024/03/03 05:59:28;;;;;;;12.05;6.15;;;;;;;;;;5073757;28;20047;-63
2024/03/03 06:01:54;;;;;;;14.18;5.80;;;;;;;;;;5072994;28;20040;-63
2024/03/03 06:04:20;;;;;;;13.10;6.00;;;;;;;;;;5074932;28;20052;-63
2024/03/03 06:06:52;;;;;;;11.30;5.57;;;;;;;;;;5069388;28;20493;-62
2024/03/03 06:09:18;;;;;;;11.93;5.20;;;;;;;;;;5074542;28;20444;-61
2024/03/03 06:11:45;;;;;;;14.93;6.63;;;;;;;;;;5079808;28;20049;-61
2024/03/03 06:14:14;;;;;;;12.50;5.22;;;;;;;;;;5078230;28;20056;-60
2024/03/03 06:16:41;;;;;;;11.10;5.60;;;;;;;;;;5074268;28;20040;-60
2024/03/03 06:19:07;;;;;;;11.45;5.63;;;;;;;;;;5074846;28;20045;-60
2024/03/03 06:21:33;;;;;;;13.52;6.40;;;;;;;;;;5075142;28;20032;-60
2024/03/03 06:23:59;;;;;;;11.70;6.03;;;;;;;;;;5081881;28;20044;-60
2024/03/03 06:26:28;;;;;;;11.35;6.45;;;;;;;;;;5084572;28;20036;-61
2024/03/03 06:28:55;;;;;;;15.25;5.93;;;;;;;;;;5076682;28;20044;-60
2024/03/03 06:31:21;;;;;;;12.38;6.03;;;;;;;;;;5083486;28;20432;-60
2024/03/03 06:33:47;;;;;;;13.55;6.32;;;;;;;;;;5083944;28;20032;-63
2024/03/03 06:36:20;;;;;;;11.68;6.20;;;;;;;;;;5076316;28;20044;-60
2024/03/03 06:38:47;;;;;;;12.40;6.07;;;;;;;;;;5084971;28;20044;-60
2024/03/03 06:41:13;;;;;;;16.77;7.03;;;;;;;;;;5087139;28;20036;-60
2024/03/03 06:43:43;;;;;;;16.52;7.53;;;;;;;;;;5078294;28;20045;-60
2024/03/03 06:46:12;;;;;;;;;;;;;;;;;;5084849;28;20155;-60
2024/03/03 06:48:41;;;;;;;17.90;8.80;;;;;;;;;;5084839;28;19919;-60
2024/03/03 06:51:07;;;;;;;17.33;7.28;;;;;;;;;;5073433;28;20051;-62
2024/03/03 06:53:38;;;;;;;14.75;6.80;;;;;;;;;;5077463;28;20051;-61
2024/03/03 06:56:11;;;;;;;17.67;7.55;;;;;;;;;;5087577;28;20040;-57
2024/03/03 06:58:37;;;;;;;17.58;7.43;;;;;;;;;;5082611;28;20037;-63
2024/03/03 07:01:03;;;;;;;18.15;8.30;;;;;;;;;;5076457;28;20062;-60
2024/03/03 07:03:54;;;;;;;21.60;9.73;;;;;;;;;;5074577;28;20048;-61
2024/03/03 07:06:16;;;;;;;22.95;10.15;;;;;;;;;;5079505;28;20078;-60
2024/03/03 07:08:42;;;;;;;28.80;11.55;;;;;;;;;;5076084;28;20393;-61
2024/03/03 07:11:08;;;;;;;26.70;10.10;;;;;;;;;;5078887;28;20049;-61
2024/03/03 07:13:34;;;;;;;21.23;9.18;;;;;;;;;;5077779;28;20035;-61
2024/03/03 07:16:01;;;;;;;22.67;9.73;;;;;;;;;;5084798;28;20048;-60
2024/03/03 07:18:27;;;;;;;22.77;10.50;;;;;;;;;;5078338;28;20056;-61
2024/03/03 07:20:53;;;;;;;50.92;17.90;;;;;;;;;;5076376;28;20041;-62
2024/03/03 07:23:19;;;;;;;43.80;16.63;;;;;;;;;;5084326;28;20044;-61
2024/03/03 07:25:45;;;;;;;40.72;15.73;;;;;;;;;;5080894;28;20400;-61
2024/03/03 07:28:11;;;;;;;40.35;17.33;;;;;;;;;;5073997;28;20043;-63
2024/03/03 07:30:37;;;;;;;68.60;25.27;;;;;;;;;;5078242;28;20031;-62
2024/03/03 07:33:03;;;;;;;56.28;23.15;;;;;;;;;;5079390;28;20516;-62
2024/03/03 07:35:30;;;;;;;50.55;19.10;;;;;;;;;;5088361;28;20067;-61
2024/03/03 07:37:56;;;;;;;43.30;18.55;;;;;;;;;;5080424;28;20036;-61
2024/03/03 07:40:22;;;;;;;28.75;11.27;;;;;;;;;;5083745;28;20048;-61
2024/03/03 07:42:48;;;;;;;32.00;11.07;;;;;;;;;;5079675;28;20043;-61
2024/03/03 07:45:14;;;;;;;33.60;13.70;;;;;;;;;;5080324;28;20037;-63
2024/03/03 07:47:40;;;;;;;40.47;15.13;;;;;;;;;;5075890;28;20071;-63
2024/03/03 07:50:07;;;;;;;36.65;16.15;;;;;;;;;;5078907;28;20055;-63
2024/03/03 07:52:33;;;;;;;33.70;15.43;;;;;;;;;;5070251;28;20047;-62
2024/03/03 07:54:59;;;;;;;44.13;18.50;;;;;;;;;;5081611;28;20437;-61
2024/03/03 07:57:25;;;;;;;43.85;19.17;;;;;;;;;;5080123;28;20059;-62
2024/03/03 07:59:51;;;;;;;38.35;17.17;;;;;;;;;;5081171;28;20043;-61
2024/03/03 08:02:18;;;;;;;38.22;16.27;;;;;;;;;;5076224;28;20044;-61
2024/03/03 08:04:44;;;;;;;41.65;18.27;;;;;;;;;;5081728;28;20049;-61
2024/03/03 08:07:10;;;;;;;39.35;18.02;;;;;;;;;;5082010;28;20508;-63
2024/03/03 08:09:36;;;;;;;43.53;19.20;;;;;;;;;;5074300;28;20529;-61
2024/03/03 08:12:03;;;;;;;47.60;20.00;;;;;;;;;;5081132;28;20519;-63
2024/03/03 08:14:29;;;;;;;49.47;21.40;;;;;;;;;;5085236;28;20055;-61
2024/03/03 08:16:55;;;;;;;56.75;23.35;;;;;;;;;;5084388;28;20045;-61
2024/03/03 08:19:21;;;;;;;54.17;22.65;;;;;;;;;;5079167;28;20494;-61
2024/03/03 08:21:47;;;;;;;59.13;24.52;;;;;;;;;;5073867;28;20052;-61
2024/03/03 08:24:14;;;;;;;59.50;23.35;;;;;;;;;;5082316;28;20044;-61
2024/03/03 08:26:40;;;;;;;55.63;22.00;;;;;;;;;;5084704;28;20055;-61
2024/03/03 08:29:07;;;;;;;54.60;21.88;;;;;;;;;;5077141;28;20043;-61
2024/03/03 08:31:35;;;;;;;60.00;23.92;;;;;;;;;;5072929;28;20063;-62
2024/03/03 08:34:02;;;;;;;55.33;23.60;;;;;;;;;;5078874;28;20476;-62
2024/03/03 08:36:28;;;;;;;55.58;23.35;;;;;;;;;;5089153;28;20040;-63
2024/03/03 08:38:54;;;;;;;51.47;22.48;;;;;;;;;;5081107;28;20037;-63
2024/03/03 08:41:20;;;;;;;54.38;24.20;;;;;;;;;;5080753;28;20397;-62
2024/03/03 08:43:46;;;;;;;51.53;22.33;;;;;;;;;;5080145;28;20111;-62
2024/03/03 08:46:12;;;;;;;56.47;22.85;;;;;;;;;;5075477;28;20531;-60
2024/03/03 08:48:38;;;;;;;48.97;21.95;;;;;;;;;;5074506;28;20036;-60
2024/03/03 08:51:08;;;;;;;53.53;22.83;;;;;;;;;;5077381;28;20032;-60
2024/03/03 08:53:34;;;;;;;53.85;22.27;;;;;;;;;;5079611;28;20074;-62
2024/03/03 08:56:00;;;;;;;50.70;21.15;;;;;;;;;;5082399;28;20040;-61
2024/03/03 08:58:26;;;;;;;56.42;23.08;;;;;;;;;;5088056;28;20532;-61
2024/03/03 09:00:52;;;;;;;54.28;22.83;;;;;;;;;;5087411;28;20055;-61
2024/03/03 09:03:19;;;;;;;56.22;23.10;;;;;;;;;;5080590;28;20040;-62
2024/03/03 09:05:45;;;;;;;49.78;21.83;;;;;;;;;;5086335;28;20044;-61
2024/03/03 09:08:11;;;;;;;50.22;21.90;;;;;;;;;;5084565;28;20048;-62
2024/03/03 09:10:37;;;;;;;48.83;21.67;;;;;;;;;;5083753;28;20040;-61
2024/03/03 09:13:03;;;;;;;46.75;20.48;;;;;;;;;;5084298;28;20539;-61
2024/03/03 09:15:29;;;;;;;48.25;21.55;;;;;;;;;;5080569;28;20043;-61
2024/03/03 09:17:56;;;;;;;48.92;20.02;;;;;;;;;;5082466;28;20039;-61
2024/03/03 09:20:22;;;;;;;46.33;20.02;;;;;;;;;;5086998;28;20394;-60
2024/03/03 09:22:49;;;;;;;41.55;19.77;;;;;;;;;;5086381;28;20044;-61
2024/03/03 09:25:18;;;;;;;45.75;20.60;;;;;;;;;;5099323;27;20050;-61
2024/03/03 09:27:45;;;;;;;39.63;18.67;;;;;;;;;;5084576;28;21491;-61
2024/03/03 09:30:11;;;;;;;44.22;19.33;;;;;;;;;;5079563;28;20028;-61
2024/03/03 09:32:37;;;;;;;44.42;20.77;;;;;;;;;;5081808;28;20044;-61
2024/03/03 09:35:06;;;;;;;45.65;18.73;;;;;;;;;;5077332;28;20044;-60
2024/03/03 09:37:32;;;;;;;41.97;18.90;;;;;;;;;;5081622;28;20040;-60
2024/03/03 09:39:58;;;;;;;38.15;18.17;;;;;;;;;;5080449;28;20508;-61
2024/03/03 09:42:24;;;;;;;39.35;18.55;;;;;;;;;;5089430;28;20063;-61
2024/03/03 09:44:51;;;;;;;47.92;20.25;;;;;;;;;;5087344;28;20070;-62
2024/03/03 09:47:19;;;;;;;37.60;19.38;;;;;;;;;;5083969;28;20036;-61
2024/03/03 09:49:45;;;;;;;24.10;12.00;;;;;;;;;;5085657;28;20060;-62
2024/03/03 09:52:13;;;;;;;3.72;1.20;;;;;;;;;;5078380;28;20040;-61
2024/03/03 09:54:40;;;;;;;1.98;1.08;;;;;;;;;;5086105;28;20051;-61
2024/03/03 09:57:13;;;;;;;1.23;0.70;;;;;;;;;;5073666;28;20036;-62
2024/03/03 09:59:40;;;;;;;3.25;0.80;;;;;;;;;;5083482;28;20048;-62
2024/03/03 10:02:16;;;;;;;1.88;1.08;;;;;;;;;;5078910;28;20045;-62
2024/03/03 10:04:48;;;;;;;4.07;1.30;;;;;;;;;;5076406;28;20048;-61
2024/03/03 10:07:24;;;;;;;4.78;0.90;;;;;;;;;;5079990;28;20492;-63
2024/03/03 10:10:04;;;;;;;1.05;0.70;;;;;;;;;;5080702;28;20493;-61
2024/03/03 10:12:32;;;;;;;1.75;0.68;;;;;;;;;;5081377;28;20070;-61
2024/03/03 10:15:00;;;;;;;0.93;0.70;;;;;;;;;;5095672;28;20048;-62
2024/03/03 10:17:27;;;;;;;0.80;0.70;;;;;;;;;;5085153;28;20063;-62
2024/03/03 10:19:59;;;;;;;6.35;3.30;;;;;;;;;;5081568;28;20048;-62
2024/03/03 10:22:25;;;;;;;10.52;5.40;;;;;;;;;;5081440;28;20063;-61
2024/03/03 10:25:06;;;;;;;11.02;6.20;;;;;;;;;;5080846;28;20035;-62
2024/03/03 10:27:32;;;;;;;19.75;10.93;;;;;;;;;;5090158;28;20052;-61
2024/03/03 10:30:09;;;;;;;20.38;11.45;;;;;;;;;;5087974;28;20047;-62
2024/03/03 10:32:39;;;;;;;19.35;11.30;;;;;;;;;;5087915;28;20052;-63
2024/03/03 10:35:16;;;;;;;21.98;12.60;;;;;;;;;;5084250;28;20521;-61
2024/03/03 10:37:58;;;;;;;20.67;11.50;;;;;;;;;;5085865;28;20035;-61
2024/03/03 10:40:24;;;;;;;21.30;11.55;;;;;;;;;;5086488;28;20413;-61
2024/03/03 10:42:50;;;;;;;17.17;10.27;;;;;;;;;;5090128;28;20054;-62
2024/03/03 10:45:16;;;;;;;20.00;11.15;;;;;;;;;;5088431;28;20417;-61
2024/03/03 10:47:43;;;;;;;19.92;11.68;;;;;;;;;;5087852;28;20059;-62
2024/03/03 10:50:17;;;;;;;13.48;7.88;;;;;;;;;;5078853;28;20036;-62
2024/03/03 10:52:44;;;;;;;8.73;5.75;;;;;;;;;;5082495;28;20047;-61
2024/03/03 10:55:14;;;;;;;5.20;3.88;;;;;;;;;;5079590;28;20517;-61
2024/03/03 10:57:43;;;;;;;7.72;4.40;;;;;;;;;;5091027;28;20051;-61
2024/03/03 11:00:14;;;;;;;;;;;;;;;;;;5091689;28;20043;-62
2024/03/03 11:02:44;;;;;;;14.90;9.68;;;;;;;;;;5084111;28;19919;-62
2024/03/03 11:05:12;;;;;;;7.22;4.78;;;;;;;;;;5080767;28;20035;-62
2024/03/03 11:07:39;;;;;;;2.40;1.17;;;;;;;;;;5077546;28;20429;-62
2024/03/03 11:10:06;;;;;;;2.40;1.25;;;;;;;;;;5081660;28;20401;-62
2024/03/03 11:12:38;;;;;;;1.10;0.73;;;;;;;;;;5076458;28;20045;-61
2024/03/03 11:15:05;;;;;;;9.90;5.50;;;;;;;;;;5070537;28;20516;-62
2024/03/03 11:17:39;;;;;;;2.33;1.50;;;;;;;;;;5075512;28;20060;-61
2024/03/03 11:20:13;;;;;;;3.63;1.60;;;;;;;;;;5080940;28;20031;-64
2024/03/03 11:22:45;;;;;;;1.75;0.93;;;;;;;;;;5078783;28;20032;-64
2024/03/03 11:25:21;;;;;;;2.03;0.73;;;;;;;;;;5082298;28;20040;-63
2024/03/03 11:27:55;;;;;;;0.70;0.70;;;;;;;;;;5079842;28;20027;-61
2024/03/03 11:30:22;;;;;;;2.67;1.40;;;;;;;;;;5089422;28;20024;-64
2024/03/03 11:32:49;;;;;;;1.38;0.98;;;;;;;;;;5084890;28;20388;-63
2024/03/03 11:35:16;;;;;;;1.83;0.73;;;;;;;;;;5086313;28;20071;-64
2024/03/03 11:37:42;;;;;;;0.70;0.60;;;;;;;;;;5084440;28;20052;-63
2024/03/03 11:40:15;;;;;;;1.20;0.82;;;;;;;;;;5088920;28;20028;-62
2024/03/03 11:42:42;;;;;;;1.45;0.88;;;;;;;;;;5090292;28;20499;-63
2024/03/03 11:45:09;;;;;;;1.35;0.70;;;;;;;;;;5086081;28;20049;-64
2024/03/03 11:47:36;;;;;;;1.20;0.80;;;;;;;;;;5085622;28;20043;-64
2024/03/03 11:50:22;;;;;;;1.20;0.80;;;;;;;;;;5089151;28;20035;-63
2024/03/03 11:52:50;;;;;;;2.92;0.80;;;;;;;;;;5077616;28;20397;-63
2024/03/03 11:55:26;;;;;;;3.50;1.70;;;;;;;;;;5074586;28;20378;-63
2024/03/03 11:57:55;;;;;;;1.85;0.80;;;;;;;;;;5085617;28;20404;-65
2024/03/03 12:00:27;;;;;;;2.65;0.90;;;;;;;;;;5088703;28;20052;-64
2024/03/03 12:02:54;;;;;;;0.88;0.68;;;;;;;;;;5077805;28;20173;-64
2024/03/03 12:05:21;;;;;;;2.10;0.95;;;;;;;;;;5079680;28;20036;-64
2024/03/03 12:07:49;;;;;;;1.77;0.70;;;;;;;;;;5084097;28;20071;-65
2024/03/03 12:10:23;;;;;;;1.52;0.90;;;;;;;;;;5085412;28;20036;-65
2024/03/03 12:12:55;;;;;;;1.52;0.80;;;;;;;;;;5083444;28;20043;-64
2024/03/03 12:15:23;;;;;;;0.88;0.80;;;;;;;;;;5076132;28;20047;-65
2024/03/03 12:17:55;;;;;;;1.10;0.95;;;;;;;;;;5086444;28;20035;-65
2024/03/03 12:20:23;;;;;;;1.77;0.60;;;;;;;;;;5083191;28;20036;-64
2024/03/03 12:22:49;;;;;;;1.02;0.80;;;;;;;;;;5081785;28;20028;-63
2024/03/03 12:25:17;;;;;;;1.92;1.00;;;;;;;;;;5080897;28;20044;-63
2024/03/03 12:27:50;;;;;;;1.38;0.80;;;;;;;;;;5082038;28;20043;-64
2024/03/03 12:30:20;;;;;;;1.45;0.70;;;;;;;;;;5083593;28;20047;-64
2024/03/03 12:32:47;;;;;;;0.90;0.50;;;;;;;;;;5077517;28;20051;-64
2024/03/03 12:35:13;;;;;;;2.38;0.80;;;;;;;;;;5082242;28;20031;-66
2024/03/03 12:37:39;;;;;;;0.98;0.80;;;;;;;;;;5078006;28;20409;-63
2024/03/03 12:40:07;;;;;;;1.17;0.70;;;;;;;;;;5087836;28;20038;-64
2024/03/03 12:42:34;;;;;;;1.27;0.50;;;;;;;;;;5081274;28;20043;-61
2024/03/03 12:45:00;;;;;;;1.05;0.60;;;;;;;;;;5085172;28;20039;-65
2024/03/03 12:47:26;;;;;;;0.80;0.40;;;;;;;;;;5087150;28;20064;-62
2024/03/03 12:49:53;;;;;;;0.98;0.70;;;;;;;;;;5076087;28;20389;-64
2024/03/03 12:52:20;;;;;;;0.90;0.50;;;;;;;;;;5080535;28;20052;-64
2024/03/03 12:54:47;;;;;;;0.93;0.57;;;;;;;;;;5076651;28;20048;-64
2024/03/03 12:57:14;;;;;;;0.77;0.50;;;;;;;;;;5086027;28;20016;-64
2024/03/03 12:59:40;;;;;;;1.77;0.60;;;;;;;;;;5087775;28;20051;-65
2024/03/03 13:02:13;;;;;;;1.70;0.52;;;;;;;;;;5056893;28;20028;-64
2024/03/03 13:04:40;;;;;;;1.02;0.65;;;;;;;;;;5075579;28;20043;-65
2024/03/03 13:07:09;;;;;;;0.90;0.47;;;;;;;;;;5076764;28;20032;-64
2024/03/03 13:09:37;;;;;;;0.75;0.50;;;;;;;;;;5078455;28;20690;-65
2024/03/03 13:12:05;;;;;;;0.65;0.50;;;;;;;;;;5072769;28;20019;-64
2024/03/03 13:14:34;;;;;;;3.65;0.80;;;;;;;;;;5084519;28;20028;-65
2024/03/03 13:17:04;;;;;;;;;;;;;;;;;;5079196;28;20036;-65
2024/03/03 13:19:43;;;;;;;0.75;0.40;;;;;;;;;;5080355;28;20272;-65
2024/03/03 13:22:09;;;;;;;;;;;;;;;;;;5081110;28;20486;-64
2024/03/03 13:24:38;;;;;;;1.38;0.57;;;;;;;;;;5088243;28;19908;-64
2024/03/03 13:27:04;;;;;;;1.50;0.60;;;;;;;;;;5080486;28;20032;-65
2024/03/03 13:29:30;;;;;;;2.92;1.52;;;;;;;;;;5078771;28;20059;-65
2024/03/03 13:31:56;;;;;;;1.70;1.10;;;;;;;;;;5082336;28;20036;-64
2024/03/03 13:34:22;;;;;;;2.28;1.00;;;;;;;;;;5079032;28;20227;-64
2024/03/03 13:36:48;;;;;;;3.80;0.70;;;;;;;;;;5073366;28;20063;-63
2024/03/03 13:39:15;;;;;;;2.05;0.80;;;;;;;;;;5077293;28;20044;-63
2024/03/03 13:41:41;;;;;;;2.17;0.50;;;;;;;;;;5083666;28;20044;-64
2024/03/03 13:44:07;;;;;;;2.78;0.70;;;;;;;;;;5080265;28;20063;-63
2024/03/03 13:46:33;;;;;;;0.75;0.55;;;;;;;;;;5075461;28;20033;-65
2024/03/03 13:48:59;;;;;;;1.35;0.50;;;;;;;;;;5083110;28;20032;-64
2024/03/03 13:51:25;;;;;;;1.88;0.90;;;;;;;;;;5084341;28;20484;-65
2024/03/03 13:53:52;;;;;;;2.03;0.75;;;;;;;;;;5079489;28;20413;-65
2024/03/03 13:56:18;;;;;;;2.13;0.82;;;;;;;;;;5086068;28;20036;-65
2024/03/03 13:58:44;;;;;;;1.65;1.30;;;;;;;;;;5092077;28;20044;-65
2024/03/03 14:01:10;;;;;;;0.82;0.47;;;;;;;;;;5079953;28;20032;-65
2024/03/03 14:03:36;;;;;;;0.73;0.55;;;;;;;;;;5083223;28;20532;-65
2024/03/03 14:06:02;;;;;;;1.23;0.60;;;;;;;;;;5080284;28;20036;-64
2024/03/03 14:08:29;;;;;;;2.30;0.60;;;;;;;;;;5084473;28;20028;-63
2024/03/03 14:10:55;;;;;;;1.25;0.52;;;;;;;;;;5083585;28;20027;-64
2024/03/03 14:13:21;;;;;;;1.55;0.50;;;;;;;;;;5080158;28;20400;-64
2024/03/03 14:15:47;;;;;;;0.80;0.57;;;;;;;;;;5084578;28;20051;-65
2024/03/03 14:18:15;;;;;;;1.00;0.50;;;;;;;;;;5083870;28;20049;-65
2024/03/03 14:20:41;;;;;;;0.90;0.73;;;;;;;;;;5081844;28;20036;-64
2024/03/03 14:23:07;;;;;;;1.23;0.50;;;;;;;;;;5080651;28;20032;-65
2024/03/03 14:25:33;;;;;;;3.65;0.90;;;;;;;;;;5079300;28;20032;-63
2024/03/03 14:28:00;;;;;;;2.90;0.60;;;;;;;;;;5078070;28;20036;-65
2024/03/03 14:30:26;;;;;;;1.42;0.55;;;;;;;;;;5086880;28;20032;-65